Time;durP1;ratioP1;P1;durP2;ratioP2;P2;SDS_P1;SDS_P2;PMS_P1;PMS_P2;Temp;Humidity;BMP_temperature;BMP_pressure;BME280_temperature;BME280_humidity;BME280_pressure;Samples;Min_cycle;Max_cycle;Signal;HPM_P1;HPM_P2
2022/06/17 00:00:26;;;;;;;5.38;2.22;;;18.00;73.30;;;;;;5067689;28;20036;-60
2022/06/17 00:02:52;;;;;;;2.65;1.75;;;17.90;73.40;;;;;;5070450;28;20464;-59
2022/06/17 00:05:18;;;;;;;3.35;2.20;;;17.90;73.70;;;;;;5068813;28;20115;-60
2022/06/17 00:07:43;;;;;;;2.55;2.17;;;17.90;74.00;;;;;;5067942;28;20128;-59
2022/06/17 00:10:23;;;;;;;2.55;2.10;;;17.80;74.20;;;;;;5066835;28;20036;-60
2022/06/17 00:12:49;;;;;;;2.97;2.03;;;17.90;74.40;;;;;;5067147;28;20071;-60
2022/06/17 00:15:15;;;;;;;4.75;2.20;;;17.80;74.60;;;;;;5066333;28;20106;-60
2022/06/17 00:17:44;;;;;;;3.47;2.33;;;17.70;74.70;;;;;;5066705;28;20533;-60
2022/06/17 00:20:15;;;;;;;3.42;2.22;;;17.70;74.90;;;;;;5065050;28;20501;-59
2022/06/17 00:22:43;;;;;;;3.40;2.25;;;17.70;75.10;;;;;;5067334;28;20169;-60
2022/06/17 00:25:31;;;;;;;4.32;2.08;;;17.70;75.10;;;;;;5066417;28;20392;-59
2022/06/17 00:27:57;;;;;;;4.80;2.28;;;17.70;75.10;;;;;;5064656;28;20502;-59
2022/06/17 00:30:25;;;;;;;5.72;2.17;;;17.60;75.40;;;;;;5065706;28;20028;-60
2022/06/17 00:32:56;;;;;;;7.45;3.00;;;17.60;75.60;;;;;;5067424;28;20027;-59
2022/06/17 00:35:24;;;;;;;2.58;1.85;;;17.60;75.90;;;;;;5067010;28;20287;-60
2022/06/17 00:37:50;;;;;;;2.80;2.30;;;17.60;76.20;;;;;;5066752;28;20021;-60
2022/06/17 00:40:22;;;;;;;3.78;2.20;;;17.60;76.30;;;;;;5064156;28;20038;-59
2022/06/17 00:42:48;;;;;;;3.25;2.10;;;17.60;76.30;;;;;;5067984;28;20509;-60
2022/06/17 00:45:32;;;;;;;3.30;2.20;;;17.60;76.40;;;;;;5063857;28;20417;-59
2022/06/17 00:48:43;;;;;;;3.35;2.17;;;17.60;76.50;;;;;;5063482;28;20055;-59
2022/06/17 00:51:20;;;;;;;2.28;1.83;;;17.60;76.60;;;;;;5040274;28;20075;-60
2022/06/17 00:53:54;;;;;;;3.10;2.15;;;17.60;77.10;;;;;;5051930;28;20029;-59
2022/06/17 00:56:32;;;;;;;2.92;2.38;;;17.50;77.30;;;;;;5065054;28;20420;-59
2022/06/17 00:59:13;;;;;;;4.28;1.77;;;17.50;77.50;;;;;;5063778;28;20081;-59
2022/06/17 01:02:04;;;;;;;2.10;1.70;;;17.50;77.60;;;;;;5077415;28;20116;-59
2022/06/17 01:04:48;;;;;;;2.40;1.77;;;17.50;77.60;;;;;;5067961;28;20617;-59
2022/06/17 01:07:27;;;;;;;3.33;1.85;;;17.50;77.60;;;;;;5069029;28;20017;-59
2022/06/17 01:09:58;;;;;;;;;;;17.50;77.60;;;;;;5072022;28;20724;-60
2022/06/17 01:12:52;;;;;;;2.35;1.67;;;17.40;77.50;;;;;;5071441;28;19908;-60
2022/06/17 01:15:21;;;;;;;2.05;1.55;;;17.40;77.60;;;;;;5064583;28;20045;-59
2022/06/17 01:17:48;;;;;;;2.70;1.60;;;17.40;77.70;;;;;;5069273;28;20016;-59
2022/06/17 01:20:15;;;;;;;2.78;1.75;;;17.40;77.60;;;;;;5070780;28;20081;-60
2022/06/17 01:22:43;;;;;;;3.53;2.25;;;17.40;77.70;;;;;;5069169;28;20051;-60
2022/06/17 01:25:17;;;;;;;2.30;2.10;;;17.40;78.00;;;;;;5071179;28;20020;-59
2022/06/17 01:27:46;;;;;;;5.15;2.53;;;17.40;78.40;;;;;;5070164;28;20031;-59
2022/06/17 01:30:16;;;;;;;4.83;2.20;;;17.30;78.80;;;;;;5069124;28;20034;-60
2022/06/17 01:32:48;;;;;;;;;;;17.30;79.20;;;;;;5070519;28;20274;-59
2022/06/17 01:35:13;;;;;;;3.67;1.67;;;17.20;79.10;;;;;;5069185;28;19927;-59
2022/06/17 01:37:39;;;;;;;2.85;1.63;;;17.10;79.70;;;;;;5072398;28;20472;-59
2022/06/17 01:40:06;;;;;;;3.42;1.80;;;17.10;79.60;;;;;;5068531;28;20059;-59
2022/06/17 01:42:32;;;;;;;3.00;1.75;;;17.10;79.50;;;;;;5069329;28;20028;-59
2022/06/17 01:44:58;;;;;;;4.93;2.05;;;17.10;79.50;;;;;;5068554;28;20024;-59
2022/06/17 01:47:28;;;;;;;3.22;2.47;;;17.10;79.50;;;;;;5069405;28;20032;-59
2022/06/17 01:50:07;;;;;;;3.38;1.70;;;17.10;79.70;;;;;;5068949;28;20101;-59
2022/06/17 01:52:41;;;;;;;2.85;1.80;;;17.10;79.80;;;;;;5069279;28;20043;-59
2022/06/17 01:55:15;;;;;;;3.65;2.03;;;17.10;80.00;;;;;;5069905;28;20057;-59
2022/06/17 01:57:49;;;;;;;3.10;1.95;;;17.00;80.00;;;;;;5067931;28;20035;-59
2022/06/17 02:00:23;;;;;;;2.67;2.17;;;16.90;80.10;;;;;;5070078;28;20024;-59
2022/06/17 02:02:54;;;;;;;3.30;2.20;;;16.90;80.20;;;;;;5069325;28;20073;-59
2022/06/17 02:05:23;;;;;;;3.55;1.90;;;16.90;80.20;;;;;;5065778;28;20397;-60
2022/06/17 02:07:57;;;;;;;4.30;2.55;;;16.90;80.40;;;;;;5068603;28;20107;-59
2022/06/17 02:10:28;;;;;;;3.83;2.55;;;16.80;80.40;;;;;;5069646;28;20067;-59
2022/06/17 02:12:56;;;;;;;4.10;3.13;;;16.80;80.50;;;;;;5069799;28;20028;-59
2022/06/17 02:15:23;;;;;;;2.40;2.13;;;16.80;80.60;;;;;;5069511;28;20028;-59
2022/06/17 02:17:52;;;;;;;3.40;2.28;;;16.80;80.60;;;;;;5068554;28;20025;-59
2022/06/17 02:20:19;;;;;;;3.23;2.30;;;16.80;80.80;;;;;;5070864;28;20024;-59
2022/06/17 02:22:46;;;;;;;5.00;2.42;;;16.70;81.00;;;;;;5069674;28;20094;-59
2022/06/17 02:25:19;;;;;;;3.05;2.42;;;16.70;81.10;;;;;;5069379;28;20013;-59
2022/06/17 02:27:50;;;;;;;4.13;2.42;;;16.70;81.50;;;;;;5071297;28;20111;-59
2022/06/17 02:30:17;;;;;;;2.92;2.25;;;16.60;81.90;;;;;;5067515;28;20024;-59
2022/06/17 02:32:43;;;;;;;4.75;2.30;;;16.60;82.20;;;;;;5069847;28;20024;-59
2022/06/17 02:35:32;;;;;;;2.50;2.03;;;16.50;82.40;;;;;;5068521;28;20032;-59
2022/06/17 02:37:58;;;;;;;3.78;2.05;;;16.50;82.70;;;;;;5066340;28;20031;-59
2022/06/17 02:40:30;;;;;;;4.90;2.08;;;16.40;83.00;;;;;;5067048;28;20028;-59
2022/06/17 02:42:58;;;;;;;3.30;2.00;;;16.40;83.30;;;;;;5069729;28;20133;-59
2022/06/17 02:45:30;;;;;;;2.78;1.80;;;16.40;83.30;;;;;;5066907;28;20047;-59
2022/06/17 02:47:55;;;;;;;3.60;2.13;;;16.40;83.40;;;;;;5064588;28;20050;-59
2022/06/17 02:50:24;;;;;;;4.43;2.42;;;16.40;83.40;;;;;;5100888;27;20392;-59
2022/06/17 02:52:52;;;;;;;3.83;2.80;;;16.40;83.50;;;;;;5068284;28;20528;-59
2022/06/17 02:55:28;;;;;;;3.05;2.45;;;16.40;83.40;;;;;;5067677;28;20781;-59
2022/06/17 02:58:20;;;;;;;5.10;4.22;;;16.40;83.40;;;;;;5066404;28;20021;-59
2022/06/17 03:00:46;;;;;;;6.43;4.03;;;16.40;83.80;;;;;;5082822;28;20479;-59
2022/06/17 03:03:16;;;;;;;4.55;3.70;;;16.30;84.00;;;;;;5064519;28;20039;-59
2022/06/17 03:05:44;;;;;;;3.95;3.13;;;16.30;84.00;;;;;;5070162;28;20023;-59
2022/06/17 03:08:29;;;;;;;3.67;2.88;;;16.30;84.00;;;;;;5068402;28;20029;-59
2022/06/17 03:10:59;;;;;;;3.95;2.58;;;16.30;84.00;;;;;;5067687;28;20052;-59
2022/06/17 03:13:39;;;;;;;2.90;2.47;;;16.30;84.30;;;;;;5068361;28;20032;-59
2022/06/17 03:16:09;;;;;;;4.40;2.22;;;16.30;84.30;;;;;;5063719;28;20048;-59
2022/06/17 03:18:35;;;;;;;3.38;2.28;;;16.30;84.50;;;;;;5049187;28;20027;-59
2022/06/17 03:21:02;;;;;;;3.05;2.53;;;16.30;84.50;;;;;;5067771;28;20028;-59
2022/06/17 03:23:37;;;;;;;3.50;2.47;;;16.30;84.60;;;;;;5070087;28;20059;-59
2022/06/17 03:26:08;;;;;;;4.55;2.50;;;16.30;84.60;;;;;;5068530;28;20012;-59
2022/06/17 03:28:39;;;;;;;3.90;2.92;;;16.30;84.60;;;;;;5069018;28;20027;-59
2022/06/17 03:31:22;;;;;;;4.70;3.90;;;16.30;84.70;;;;;;5079567;28;20079;-59
2022/06/17 03:33:58;;;;;;;6.20;2.97;;;16.30;85.00;;;;;;5068899;28;20078;-59
2022/06/17 03:36:30;;;;;;;5.07;3.88;;;16.20;85.30;;;;;;5068635;28;20028;-59
2022/06/17 03:38:58;;;;;;;8.68;6.07;;;16.10;85.70;;;;;;5065938;28;20043;-59
2022/06/17 03:41:49;;;;;;;8.75;7.13;;;16.10;86.60;;;;;;5066721;28;20032;-59
2022/06/17 03:44:18;;;;;;;7.97;6.50;;;16.00;86.90;;;;;;5066757;28;20408;-59
2022/06/17 03:46:52;;;;;;;6.93;5.82;;;16.00;87.10;;;;;;5068469;28;20078;-59
2022/06/17 03:49:24;;;;;;;7.82;6.90;;;16.10;87.10;;;;;;5068362;28;20519;-59
2022/06/17 03:51:58;;;;;;;8.98;6.88;;;16.10;87.10;;;;;;5065783;28;20812;-59
2022/06/17 03:54:24;;;;;;;8.02;7.22;;;16.10;87.30;;;;;;5064814;28;20504;-59
2022/06/17 03:56:52;;;;;;;9.45;7.20;;;16.20;87.70;;;;;;5067458;28;20032;-59
2022/06/17 03:59:26;;;;;;;8.48;7.40;;;16.20;87.90;;;;;;5068389;28;20082;-60
2022/06/17 04:01:59;;;;;;;7.93;7.07;;;16.20;88.60;;;;;;5068219;28;20481;-59
2022/06/17 04:04:28;;;;;;;11.60;7.78;;;16.20;88.30;;;;;;5069052;28;20033;-59
2022/06/17 04:06:55;;;;;;;8.98;7.05;;;16.20;88.80;;;;;;5068282;28;20021;-59
2022/06/17 04:09:26;;;;;;;8.98;7.68;;;16.30;89.10;;;;;;5066894;28;20533;-59
2022/06/17 04:11:57;;;;;;;9.40;7.93;;;16.30;89.30;;;;;;5067066;28;20366;-59
2022/06/17 04:14:41;;;;;;;7.90;7.10;;;16.30;89.50;;;;;;5065215;28;20032;-59
2022/06/17 04:17:36;;;;;;;10.57;8.07;;;16.40;89.50;;;;;;5065973;28;20071;-59
2022/06/17 04:20:26;;;;;;;9.00;7.95;;;16.40;89.90;;;;;;5066092;28;20037;-59
2022/06/17 04:23:22;;;;;;;8.50;7.53;;;16.50;89.90;;;;;;5068140;28;20025;-59
2022/06/17 04:26:07;;;;;;;8.80;6.97;;;16.50;89.40;;;;;;5051130;28;20442;-59
2022/06/17 04:28:42;;;;;;;10.32;7.63;;;16.60;89.40;;;;;;5082563;28;20035;-59
2022/06/17 04:31:15;;;;;;;9.50;7.70;;;16.60;88.90;;;;;;5067189;28;20020;-59
2022/06/17 04:33:45;;;;;;;9.88;8.10;;;16.70;88.90;;;;;;5062374;28;20025;-60
2022/06/17 04:36:19;;;;;;;9.93;7.50;;;16.70;89.10;;;;;;5068598;28;20894;-59
2022/06/17 04:38:54;;;;;;;11.77;8.10;;;16.70;89.10;;;;;;5065710;28;20392;-59
2022/06/17 04:41:22;;;;;;;7.68;6.90;;;16.70;89.30;;;;;;5065419;28;20073;-59
2022/06/17 04:43:51;;;;;;;8.95;7.93;;;16.80;89.30;;;;;;5064837;28;20131;-59
2022/06/17 04:46:24;;;;;;;8.95;8.05;;;16.80;89.30;;;;;;5067624;28;20107;-59
2022/06/17 04:48:51;;;;;;;11.55;8.02;;;16.80;90.00;;;;;;5067971;28;20036;-59
2022/06/17 04:51:17;;;;;;;10.45;7.68;;;16.80;89.20;;;;;;5066203;28;20463;-59
2022/06/17 04:53:45;;;;;;;10.75;8.57;;;16.90;88.90;;;;;;5067471;28;20480;-60
2022/06/17 04:56:20;;;;;;;10.55;7.57;;;16.90;88.60;;;;;;5065312;28;20036;-59
2022/06/17 04:58:46;;;;;;;9.07;7.88;;;17.00;88.50;;;;;;5065900;28;20021;-59
2022/06/17 05:01:18;;;;;;;12.00;8.65;;;17.00;88.80;;;;;;5067025;28;20019;-59
2022/06/17 05:03:43;;;;;;;9.57;8.07;;;17.00;88.60;;;;;;5066684;28;20024;-59
2022/06/17 05:06:10;;;;;;;11.25;7.28;;;17.00;88.60;;;;;;5065393;28;20024;-59
2022/06/17 05:08:39;;;;;;;8.57;7.68;;;17.10;88.50;;;;;;5066813;28;20484;-59
2022/06/17 05:11:17;;;;;;;9.15;7.72;;;17.10;88.50;;;;;;5065612;28;20223;-59
2022/06/17 05:13:56;;;;;;;9.93;8.93;;;17.20;88.40;;;;;;5070524;28;20083;-59
2022/06/17 05:16:22;;;;;;;9.05;8.13;;;17.20;88.00;;;;;;5063529;28;20028;-59
2022/06/17 05:18:49;;;;;;;10.25;8.15;;;17.20;88.00;;;;;;5067587;28;20058;-59
2022/06/17 05:21:21;;;;;;;9.88;8.10;;;17.30;87.70;;;;;;5066413;28;20032;-59
2022/06/17 05:23:50;;;;;;;10.60;8.10;;;17.30;87.30;;;;;;5065211;28;20020;-59
2022/06/17 05:26:19;;;;;;;11.55;8.95;;;17.40;87.10;;;;;;5067735;28;20039;-59
2022/06/17 05:28:46;;;;;;;11.83;8.53;;;17.40;86.80;;;;;;5068907;28;20468;-59
2022/06/17 05:31:15;;;;;;;12.40;8.98;;;17.50;86.80;;;;;;5070135;28;20017;-59
2022/06/17 05:33:41;;;;;;;12.27;9.30;;;17.60;86.60;;;;;;5064476;28;20066;-59
2022/06/17 05:36:06;;;;;;;10.75;8.63;;;17.60;86.80;;;;;;5065197;28;20052;-59
2022/06/17 05:38:32;;;;;;;9.63;8.55;;;17.70;86.90;;;;;;5076243;28;20021;-59
2022/06/17 05:40:58;;;;;;;11.38;9.80;;;17.80;86.60;;;;;;5071191;28;20032;-59
2022/06/17 05:43:23;;;;;;;11.15;9.68;;;17.90;86.10;;;;;;5083323;28;20017;-59
2022/06/17 05:45:49;;;;;;;12.30;8.90;;;18.00;85.30;;;;;;5063417;28;20059;-59
2022/06/17 05:48:14;;;;;;;11.48;9.90;;;18.10;85.70;;;;;;5067415;28;20033;-59
2022/06/17 05:50:40;;;;;;;12.48;9.65;;;18.20;85.00;;;;;;5069353;28;20043;-59
2022/06/17 05:53:10;;;;;;;9.27;8.27;;;18.30;83.90;;;;;;5051619;28;20036;-59
2022/06/17 05:55:36;;;;;;;10.23;8.75;;;18.40;83.50;;;;;;5065889;28;20056;-59
2022/06/17 05:58:03;;;;;;;10.43;9.25;;;18.60;81.90;;;;;;5071073;28;20383;-59
2022/06/17 06:00:30;;;;;;;10.98;8.25;;;18.70;81.20;;;;;;5065420;28;20017;-59
2022/06/17 06:03:02;;;;;;;11.57;9.20;;;18.70;79.70;;;;;;5055228;28;20116;-59
2022/06/17 06:05:30;;;;;;;10.63;8.35;;;18.90;79.80;;;;;;5087265;28;20392;-59
2022/06/17 06:07:55;;;;;;;10.80;8.90;;;18.90;79.30;;;;;;5067173;28;20462;-59
2022/06/17 06:10:22;;;;;;;10.13;8.23;;;19.00;79.50;;;;;;5054995;28;20535;-59
2022/06/17 06:12:54;;;;;;;10.55;9.13;;;19.10;79.10;;;;;;5056890;28;20472;-59
2022/06/17 06:15:21;;;;;;;10.70;9.23;;;19.10;78.60;;;;;;5065230;28;20538;-59
2022/06/17 06:17:48;;;;;;;8.48;7.38;;;19.20;78.50;;;;;;5065839;28;20027;-59
2022/06/17 06:20:15;;;;;;;13.77;9.43;;;19.20;78.40;;;;;;5061824;28;20029;-60
2022/06/17 06:22:41;;;;;;;11.40;8.73;;;19.30;77.60;;;;;;5060634;28;20020;-60
2022/06/17 06:25:07;;;;;;;10.30;8.93;;;19.40;77.10;;;;;;5061441;28;20012;-60
2022/06/17 06:27:34;;;;;;;13.77;8.45;;;19.40;78.20;;;;;;5064695;28;20021;-59
2022/06/17 06:29:59;;;;;;;8.68;7.72;;;19.50;77.90;;;;;;5070571;28;20392;-60
2022/06/17 06:32:25;;;;;;;10.60;9.13;;;19.60;77.30;;;;;;5067296;28;20036;-59
2022/06/17 06:34:52;;;;;;;10.27;8.38;;;19.60;76.70;;;;;;5070043;28;20039;-59
2022/06/17 06:37:18;;;;;;;10.65;7.57;;;19.70;77.00;;;;;;5099665;28;20052;-59
2022/06/17 06:39:44;;;;;;;9.63;8.38;;;19.80;77.40;;;;;;5068021;28;20366;-59
2022/06/17 06:42:10;;;;;;;12.45;9.02;;;19.90;76.30;;;;;;5066357;28;20032;-59
2022/06/17 06:44:35;;;;;;;7.88;6.97;;;20.00;74.00;;;;;;5063323;28;20025;-60
2022/06/17 06:47:01;;;;;;;11.25;7.35;;;20.10;75.00;;;;;;5070552;28;20019;-59
2022/06/17 06:49:26;;;;;;;10.32;8.35;;;20.20;74.20;;;;;;5065663;28;20502;-59
2022/06/17 06:51:52;;;;;;;9.63;7.53;;;20.40;74.20;;;;;;5057775;28;20021;-59
2022/06/17 06:54:17;;;;;;;9.45;6.43;;;20.50;72.80;;;;;;5067614;28;20504;-60
2022/06/17 06:56:43;;;;;;;12.60;7.30;;;20.50;73.60;;;;;;5066488;28;20063;-60
2022/06/17 06:59:11;;;;;;;8.82;6.80;;;20.60;71.00;;;;;;5069233;28;20108;-60
2022/06/17 07:01:37;;;;;;;7.82;6.65;;;20.60;72.30;;;;;;5067778;28;20067;-59
2022/06/17 07:04:04;;;;;;;7.53;6.75;;;20.70;71.70;;;;;;5060145;28;20415;-60
2022/06/17 07:06:29;;;;;;;8.25;6.57;;;20.70;73.40;;;;;;5065302;28;20495;-60
2022/06/17 07:08:55;;;;;;;9.48;7.03;;;20.80;73.00;;;;;;5072110;28;20028;-60
2022/06/17 07:11:21;;;;;;;8.43;6.85;;;20.80;72.70;;;;;;5067657;28;20408;-59
2022/06/17 07:13:46;;;;;;;10.30;7.80;;;20.90;73.10;;;;;;5060198;28;20020;-60
2022/06/17 07:16:12;;;;;;;8.73;7.25;;;20.90;72.70;;;;;;5071251;28;20090;-60
2022/06/17 07:18:40;;;;;;;12.18;7.53;;;21.00;70.50;;;;;;5067788;28;20538;-60
2022/06/17 07:21:11;;;;;;;11.52;7.40;;;21.00;70.60;;;;;;5062422;28;20400;-60
2022/06/17 07:23:42;;;;;;;7.70;6.90;;;21.00;69.80;;;;;;5064223;28;20479;-60
2022/06/17 07:26:16;;;;;;;10.90;6.57;;;21.10;70.50;;;;;;5063145;28;20396;-60
2022/06/17 07:28:43;;;;;;;12.27;7.10;;;21.10;71.90;;;;;;5052253;28;20025;-59
2022/06/17 07:31:09;;;;;;;9.80;7.63;;;21.20;71.10;;;;;;5060926;28;20090;-60
2022/06/17 07:33:34;;;;;;;7.85;6.30;;;21.30;70.10;;;;;;5064509;28;20484;-60
2022/06/17 07:36:01;;;;;;;9.07;6.28;;;21.30;70.80;;;;;;5072986;28;20238;-60
2022/06/17 07:41:23;;;;;;;10.00;6.05;;;21.40;68.50;;;;;;5067068;28;20034;-60
2022/06/17 07:43:50;;;;;;;7.50;5.45;;;21.40;69.40;;;;;;5063745;28;20016;-60
2022/06/17 07:46:16;;;;;;;7.13;5.20;;;21.40;71.70;;;;;;5062547;28;20103;-60
2022/06/17 07:48:42;;;;;;;7.35;4.72;;;21.40;70.80;;;;;;5059886;28;20099;-60
2022/06/17 07:51:09;;;;;;;5.85;4.10;;;21.50;68.00;;;;;;5058143;28;20017;-60
2022/06/17 07:53:35;;;;;;;8.52;5.05;;;21.50;69.00;;;;;;5060013;28;20129;-60
2022/06/17 07:56:04;;;;;;;9.68;5.43;;;21.60;68.10;;;;;;5056208;28;20044;-60
2022/06/17 07:58:30;;;;;;;6.47;4.32;;;21.70;66.60;;;;;;5057744;28;20056;-59
2022/06/17 08:00:55;;;;;;;6.75;5.10;;;21.80;67.60;;;;;;5058207;28;20488;-60
2022/06/17 08:03:22;;;;;;;8.68;4.63;;;21.90;66.50;;;;;;5069531;28;20064;-60
2022/06/17 08:05:52;;;;;;;6.30;4.90;;;21.90;66.60;;;;;;5059720;28;20093;-59
2022/06/17 08:08:22;;;;;;;6.32;5.20;;;21.90;66.40;;;;;;5067840;28;20059;-60
2022/06/17 08:10:55;;;;;;;6.05;5.05;;;22.00;66.40;;;;;;5060575;28;20023;-60
2022/06/17 08:13:21;;;;;;;7.50;4.95;;;22.10;66.80;;;;;;5059660;28;20024;-59
2022/06/17 08:15:47;;;;;;;9.82;5.47;;;22.20;66.00;;;;;;5063337;28;20025;-60
2022/06/17 08:18:13;;;;;;;6.20;4.75;;;22.20;65.20;;;;;;5067567;28;20439;-60
2022/06/17 08:20:39;;;;;;;8.73;5.05;;;22.30;65.30;;;;;;5072354;28;20016;-59
2022/06/17 08:23:06;;;;;;;7.85;5.97;;;22.30;65.20;;;;;;5061735;28;20101;-60
2022/06/17 08:25:33;;;;;;;7.60;5.80;;;22.40;63.80;;;;;;5058885;28;20017;-60
2022/06/17 08:28:02;;;;;;;5.45;4.72;;;22.40;64.50;;;;;;5081799;28;20373;-60
2022/06/17 08:30:32;;;;;;;7.35;6.22;;;22.50;64.90;;;;;;5062088;28;20017;-60
2022/06/17 08:32:57;;;;;;;7.35;5.05;;;22.60;64.10;;;;;;5065355;28;20028;-60
2022/06/17 08:35:35;;;;;;;7.38;5.03;;;22.70;63.40;;;;;;5061801;28;20033;-59
2022/06/17 08:38:13;;;;;;;8.65;5.53;;;22.80;64.30;;;;;;5058917;28;20033;-60
2022/06/17 08:40:39;;;;;;;5.72;4.40;;;22.90;63.10;;;;;;5058161;28;20043;-60
2022/06/17 08:43:30;;;;;;;9.77;4.80;;;23.00;62.90;;;;;;5062246;28;20384;-60
2022/06/17 08:46:03;;;;;;;7.70;4.32;;;23.20;63.50;;;;;;5054246;28;20333;-61
2022/06/17 08:48:56;;;;;;;5.38;4.40;;;23.20;62.60;;;;;;5057975;28;20403;-60
2022/06/17 08:51:41;;;;;;;7.43;4.30;;;23.40;62.60;;;;;;5058344;28;20370;-60
2022/06/17 08:54:39;;;;;;;6.13;4.68;;;23.50;61.90;;;;;;5064032;28;20500;-60
2022/06/17 08:57:27;;;;;;;8.27;4.57;;;23.60;61.60;;;;;;5049307;28;20041;-60
2022/06/17 09:00:06;;;;;;;7.00;3.30;;;23.60;60.60;;;;;;5065026;28;20096;-60
2022/06/17 09:02:54;;;;;;;4.95;2.80;;;23.70;61.40;;;;;;5065334;28;20021;-60
2022/06/17 09:05:43;;;;;;;6.57;3.27;;;23.90;59.00;;;;;;5067122;28;20388;-60
2022/06/17 09:08:26;;;;;;;5.57;2.72;;;23.90;59.80;;;;;;5065628;28;20247;-60
2022/06/17 09:11:03;;;;;;;6.97;3.53;;;24.00;57.80;;;;;;5065548;28;20263;-60
2022/06/17 09:14:08;;;;;;;5.28;2.88;;;24.00;56.80;;;;;;5061808;28;20021;-60
2022/06/17 09:16:57;;;;;;;7.05;3.42;;;24.00;57.70;;;;;;5059517;28;20027;-60
2022/06/17 09:19:29;;;;;;;4.68;2.90;;;24.10;57.60;;;;;;5069822;28;20035;-60
2022/06/17 09:22:01;;;;;;;9.15;3.58;;;24.10;58.00;;;;;;5070110;28;20021;-59
2022/06/17 09:24:37;;;;;;;6.25;3.05;;;24.20;57.00;;;;;;5066810;28;20112;-60
2022/06/17 09:27:06;;;;;;;5.85;2.92;;;24.20;56.50;;;;;;5072640;28;20013;-60
2022/06/17 09:29:52;;;;;;;3.83;2.67;;;24.30;56.90;;;;;;5104407;28;20035;-60
2022/06/17 09:32:26;;;;;;;6.20;2.22;;;24.40;56.90;;;;;;5070256;28;20053;-60
2022/06/17 09:34:54;;;;;;;3.22;2.22;;;24.50;56.20;;;;;;5071395;28;20050;-60
2022/06/17 09:37:42;;;;;;;5.03;2.63;;;24.50;56.10;;;;;;5073648;28;20553;-60
2022/06/17 09:40:32;;;;;;;3.67;1.95;;;24.60;54.60;;;;;;5071174;28;20028;-60
2022/06/17 09:43:17;;;;;;;3.25;2.13;;;24.70;56.30;;;;;;5073449;28;20024;-60
2022/06/17 09:45:53;;;;;;;4.20;2.53;;;24.80;56.20;;;;;;5072580;28;20016;-60
2022/06/17 09:48:45;;;;;;;5.88;3.13;;;24.90;56.00;;;;;;5069350;28;20160;-60
2022/06/17 09:51:17;;;;;;;6.03;3.08;;;24.90;55.80;;;;;;5072225;28;20024;-60
2022/06/17 09:54:16;;;;;;;4.78;2.72;;;24.90;54.80;;;;;;5071535;28;20048;-60
2022/06/17 09:57:01;;;;;;;5.32;3.20;;;25.00;54.30;;;;;;5057118;28;20041;-60
2022/06/17 09:59:34;;;;;;;6.18;3.30;;;24.90;54.00;;;;;;5072605;28;20028;-60
2022/06/17 10:02:13;;;;;;;5.97;2.75;;;24.90;54.40;;;;;;5074186;28;20085;-60
2022/06/17 10:04:39;;;;;;;5.93;2.60;;;25.00;55.10;;;;;;5071218;28;20028;-60
2022/06/17 10:07:11;;;;;;;4.55;2.03;;;25.00;52.60;;;;;;5074052;28;20043;-60
2022/06/17 10:10:11;;;;;;;4.60;2.47;;;25.10;54.60;;;;;;5067630;28;20069;-60
2022/06/17 10:12:40;;;;;;;4.50;2.53;;;25.30;54.20;;;;;;5057621;28;20110;-60
2022/06/17 10:15:33;;;;;;;5.85;2.60;;;25.30;54.00;;;;;;5056294;28;20070;-60
2022/06/17 10:18:32;;;;;;;5.75;3.30;;;25.40;53.40;;;;;;5074809;28;20078;-60
2022/06/17 10:21:42;;;;;;;10.95;3.38;;;25.40;52.30;;;;;;5073573;28;20051;-60
2022/06/17 10:24:35;;;;;;;7.57;2.92;;;25.50;53.00;;;;;;5028164;28;20060;-60
2022/06/17 10:27:28;;;;;;;3.13;1.88;;;25.50;52.40;;;;;;5069304;28;20396;-60
2022/06/17 10:30:11;;;;;;;10.00;3.22;;;25.60;51.90;;;;;;5066162;28;20092;-60
2022/06/17 10:32:42;;;;;;;4.45;2.55;;;25.60;51.70;;;;;;5068427;28;20032;-60
2022/06/17 10:35:34;;;;;;;4.78;2.58;;;25.80;51.90;;;;;;5072574;28;20083;-60
2022/06/17 10:38:03;;;;;;;7.32;3.30;;;25.80;50.90;;;;;;5056368;28;20532;-60
2022/06/17 10:40:30;;;;;;;;;;;25.90;51.10;;;;;;5058566;28;20399;-61
2022/06/17 10:43:00;;;;;;;3.22;2.28;;;25.90;50.20;;;;;;5073362;28;19905;-60
2022/06/17 10:45:25;;;;;;;4.00;2.10;;;25.90;51.30;;;;;;5072154;28;20029;-60
2022/06/17 10:48:00;;;;;;;6.20;3.10;;;26.00;50.70;;;;;;5073293;28;20037;-60
2022/06/17 10:50:29;;;;;;;5.63;2.30;;;26.10;50.40;;;;;;5072507;28;20040;-60
2022/06/17 10:53:02;;;;;;;2.88;1.85;;;26.20;50.50;;;;;;5070991;28;20112;-61
2022/06/17 10:55:33;;;;;;;5.28;2.90;;;26.30;50.30;;;;;;5061347;28;20561;-60
2022/06/17 10:58:12;;;;;;;4.55;2.50;;;26.50;51.00;;;;;;5072207;28;20029;-60
2022/06/17 11:00:57;;;;;;;2.58;1.88;;;26.60;50.50;;;;;;5063590;28;20032;-60
2022/06/17 11:03:37;;;;;;;2.63;1.98;;;26.60;50.90;;;;;;5054661;28;20025;-60
2022/06/17 11:06:14;;;;;;;4.43;2.30;;;26.70;49.30;;;;;;5055417;28;20085;-60
2022/06/17 11:08:58;;;;;;;3.08;1.88;;;26.70;49.10;;;;;;5063515;28;20048;-61
2022/06/17 11:14:22;;;;;;;3.15;1.73;;;26.90;49.40;;;;;;5066246;28;20129;-61
2022/06/17 11:16:51;;;;;;;3.53;2.13;;;27.00;48.20;;;;;;5069149;28;20024;-60
2022/06/17 11:19:21;;;;;;;5.35;2.17;;;27.10;48.10;;;;;;5064533;28;20036;-61
2022/06/17 11:21:51;;;;;;;3.80;1.98;;;27.10;47.80;;;;;;5069433;28;20099;-61
2022/06/17 11:24:27;;;;;;;3.65;2.00;;;27.10;48.40;;;;;;5068341;28;20028;-61
2022/06/17 11:27:37;;;;;;;4.55;3.25;;;27.20;48.00;;;;;;5067040;28;20389;-61
2022/06/17 11:30:22;;;;;;;5.03;1.95;;;27.20;47.80;;;;;;5052070;28;20036;-61
2022/06/17 11:32:48;;;;;;;5.93;1.98;;;27.30;48.00;;;;;;5060643;28;20025;-61
2022/06/17 11:35:34;;;;;;;6.00;1.80;;;27.30;47.70;;;;;;5073350;28;20036;-60
2022/06/17 11:41:30;;;;;;;5.13;2.55;;;27.70;48.20;;;;;;5061644;28;20097;-60
2022/06/17 11:44:05;;;;;;;6.38;2.33;;;27.70;47.00;;;;;;5075732;28;20033;-61
2022/06/17 11:46:34;;;;;;;3.60;2.00;;;27.70;47.30;;;;;;5065672;28;20086;-61
2022/06/17 11:49:08;;;;;;;4.45;1.90;;;27.80;47.10;;;;;;5071781;28;20063;-60
2022/06/17 11:51:41;;;;;;;4.90;1.83;;;28.00;46.90;;;;;;5072424;28;20052;-61
2022/06/17 11:54:30;;;;;;;4.95;1.98;;;28.10;48.30;;;;;;5063999;28;20139;-61
2022/06/17 11:56:56;;;;;;;4.10;2.13;;;28.30;47.60;;;;;;5070683;28;20028;-61
2022/06/17 11:59:26;;;;;;;4.65;2.13;;;28.40;47.30;;;;;;5072009;28;20034;-60
2022/06/17 12:01:54;;;;;;;4.80;2.58;;;28.50;47.20;;;;;;5079022;28;20016;-61
2022/06/17 12:05:26;;;;;;;;;;;;;;;;;;;;;
2022/06/17 12:08:04;;;;;;;4.68;3.03;;;28.50;47.00;;;;;;5031723;28;20039;-61
2022/06/17 12:10:35;;;;;;;5.40;2.10;;;28.50;46.80;;;;;;5067585;28;20036;-61
2022/06/17 12:13:11;;;;;;;3.22;1.80;;;28.60;47.30;;;;;;5083576;28;20020;-60
2022/06/17 12:15:43;;;;;;;3.00;1.52;;;28.70;46.80;;;;;;5081041;28;20023;-60
2022/06/17 12:18:23;;;;;;;5.60;2.15;;;28.90;47.10;;;;;;5062339;28;20028;-61
2022/06/17 12:21:28;;;;;;;3.75;1.63;;;29.00;46.20;;;;;;5082060;28;20027;-61
2022/06/17 12:24:27;;;;;;;;;;;;;;;;;;;;;
2022/06/17 12:27:11;;;;;;;4.70;2.05;;;29.30;47.00;;;;;;5074164;28;20035;-61
2022/06/17 12:29:58;;;;;;;5.85;1.52;;;29.40;45.20;;;;;;5089801;28;20447;-60
2022/06/17 12:32:57;;;;;;;;;;;;;;;;;;;;;
2022/06/17 12:35:33;;;;;;;2.42;1.73;;;29.60;45.50;;;;;;5053023;28;20489;-61
2022/06/17 12:38:07;;;;;;;2.45;1.23;;;29.70;44.60;;;;;;5069404;28;20055;-61
2022/06/17 12:40:44;;;;;;;4.47;2.60;;;29.80;44.50;;;;;;5081648;28;20051;-61
2022/06/17 12:43:24;;;;;;;3.67;2.05;;;29.70;44.10;;;;;;5075726;28;20104;-61
2022/06/17 12:46:16;;;;;;;3.45;2.03;;;29.70;45.40;;;;;;5053123;28;20468;-61
2022/06/17 12:55:16;;;;;;;3.38;1.02;;;30.10;43.40;;;;;;5056164;28;20080;-61
2022/06/17 12:58:00;;;;;;;3.78;1.33;;;30.10;43.40;;;;;;5068827;28;20111;-60
2022/06/17 13:00:42;;;;;;;2.28;1.20;;;30.30;43.00;;;;;;5071580;28;20021;-61
2022/06/17 13:03:22;;;;;;;2.45;1.00;;;30.40;43.00;;;;;;5062357;28;20500;-60
2022/06/17 13:05:48;;;;;;;4.25;1.38;;;30.50;42.80;;;;;;5065447;28;20021;-61
2022/06/17 13:08:47;;;;;;;3.35;0.80;;;30.60;43.00;;;;;;5064497;28;20058;-61
2022/06/17 13:11:22;;;;;;;4.63;1.02;;;30.70;42.20;;;;;;5066516;28;20428;-61
2022/06/17 13:14:14;;;;;;;1.40;0.98;;;30.70;42.80;;;;;;5073862;28;20021;-61
2022/06/17 13:17:07;;;;;;;2.60;0.95;;;30.80;42.10;;;;;;5055607;28;20033;-61
2022/06/17 13:19:38;;;;;;;1.25;0.90;;;31.00;42.10;;;;;;5059891;28;20032;-61
2022/06/17 13:22:15;;;;;;;2.70;0.80;;;31.00;41.40;;;;;;5061330;28;20092;-61
2022/06/17 13:24:54;;;;;;;1.42;0.70;;;31.20;41.20;;;;;;5069936;28;20074;-61
2022/06/17 13:27:22;;;;;;;2.33;0.82;;;31.30;41.10;;;;;;5070820;28;20077;-60
2022/06/17 13:30:09;;;;;;;2.58;1.10;;;31.50;41.00;;;;;;5077431;28;20025;-61
2022/06/17 13:32:49;;;;;;;2.15;0.88;;;31.50;39.50;;;;;;5058952;28;20029;-61
2022/06/17 13:35:30;;;;;;;2.75;0.80;;;31.30;40.50;;;;;;5060149;28;20033;-61
2022/06/17 13:37:58;;;;;;;1.25;0.60;;;31.30;40.60;;;;;;5081858;28;20032;-61
2022/06/17 13:40:26;;;;;;;2.50;0.97;;;31.40;40.40;;;;;;5069735;28;20028;-60